createdAt,value
2023-03-17T00:04:34.301Z,2.90
2023-03-17T00:09:15.439Z,1.98
2023-03-17T00:13:54.840Z,2.23
2023-03-17T00:18:33.826Z,2.35
2023-03-17T00:23:17.073Z,3.50
2023-03-17T00:27:56.291Z,2.03
2023-03-17T00:32:36.137Z,2.28
2023-03-17T00:37:14.920Z,2.92
2023-03-17T00:41:53.686Z,2.40
2023-03-17T00:46:37.982Z,2.60
2023-03-17T00:51:17.898Z,1.90
2023-03-17T00:55:55.539Z,2.65
2023-03-17T01:00:35.398Z,2.83
2023-03-17T01:05:16.128Z,2.55
2023-03-17T01:09:55.921Z,2.40
2023-03-17T01:14:38.104Z,3.23
2023-03-17T01:19:17.082Z,1.77
2023-03-17T01:23:56.100Z,2.20
2023-03-17T01:28:37.336Z,2.22
2023-03-17T01:33:15.592Z,1.87
2023-03-17T01:37:55.452Z,1.70
2023-03-17T01:42:34.133Z,2.35
2023-03-17T01:47:16.986Z,2.40
2023-03-17T01:52:02.603Z,2.60
2023-03-17T01:56:45.189Z,2.50
2023-03-17T02:01:30.662Z,2.60
2023-03-17T02:06:12.577Z,2.42
2023-03-17T02:10:50.729Z,2.10
2023-03-17T02:15:38.938Z,2.08
2023-03-17T02:21:03.910Z,2.17
2023-03-17T02:25:47.166Z,1.98
2023-03-17T02:30:26.847Z,2.65
2023-03-17T02:35:07.168Z,1.70
2023-03-17T02:39:48.744Z,2.58
2023-03-17T02:44:29.823Z,2.75
2023-03-17T02:49:08.372Z,2.70
2023-03-17T02:53:47.495Z,3.00
2023-03-17T02:58:27.086Z,2.92
2023-03-17T03:03:08.473Z,1.80
2023-03-17T03:07:46.150Z,1.77
2023-03-17T03:12:26.019Z,2.20
2023-03-17T03:17:05.467Z,2.10
2023-03-17T03:21:46.325Z,2.30
2023-03-17T03:26:24.357Z,2.95
2023-03-17T03:31:03.926Z,2.72
2023-03-17T03:35:44.394Z,2.77
2023-03-17T03:40:25.216Z,2.55
2023-03-17T03:45:02.598Z,2.97
2023-03-17T03:49:42.240Z,2.40
2023-03-17T03:54:21.690Z,2.50
2023-03-17T03:59:02.547Z,1.70
2023-03-17T04:03:40.884Z,1.85
2023-03-17T04:08:20.301Z,1.93
2023-03-17T04:13:04.435Z,2.05
2023-03-17T04:17:50.028Z,2.30
2023-03-17T04:22:34.454Z,1.93
2023-03-17T04:27:18.802Z,1.67
2023-03-17T04:32:03.397Z,2.13
2023-03-17T04:36:50.042Z,2.20
2023-03-17T04:41:34.537Z,1.83
2023-03-17T04:46:18.624Z,2.33
2023-03-17T04:51:02.760Z,2.25
2023-03-17T04:55:48.190Z,2.60
2023-03-17T05:00:33.800Z,2.45
2023-03-17T05:05:17.955Z,2.53
2023-03-17T05:10:02.143Z,2.33
2023-03-17T05:14:47.787Z,2.78
2023-03-17T05:19:31.838Z,2.58
2023-03-17T05:24:15.937Z,1.83
2023-03-17T05:29:00.330Z,2.60
2023-03-17T05:33:46.625Z,2.55
2023-03-17T05:38:30.978Z,2.70
2023-03-17T05:43:15.364Z,2.30
2023-03-17T05:47:59.528Z,2.97
2023-03-17T05:52:44.981Z,1.67
2023-03-17T05:57:29.231Z,2.00
2023-03-17T06:02:14.553Z,2.67
2023-03-17T06:06:58.899Z,2.35
2023-03-17T06:11:44.760Z,2.60
2023-03-17T06:16:30.880Z,3.10
2023-03-17T06:21:15.631Z,2.92
2023-03-17T06:25:59.924Z,1.88
2023-03-17T06:30:45.697Z,2.40
2023-03-17T06:35:30.575Z,2.25
2023-03-17T06:40:16.230Z,2.92
2023-03-17T06:45:00.430Z,2.70
2023-03-17T06:49:46.552Z,2.38
2023-03-17T06:54:30.896Z,3.13
2023-03-17T06:59:15.182Z,3.25
2023-03-17T07:03:59.679Z,3.13
2023-03-17T07:08:46.434Z,3.08
2023-03-17T07:13:31.998Z,3.28
2023-03-17T07:18:17.002Z,2.50
2023-03-17T07:23:01.911Z,2.50
2023-03-17T07:27:47.812Z,2.38
2023-03-17T07:32:32.024Z,2.90
2023-03-17T07:37:16.347Z,2.08
2023-03-17T07:42:00.534Z,2.60
2023-03-17T07:46:46.433Z,2.72
2023-03-17T07:51:30.652Z,3.27
2023-03-17T07:56:14.967Z,2.63
2023-03-17T08:00:59.059Z,3.10
2023-03-17T08:05:46.462Z,1.70
2023-03-17T08:10:30.916Z,2.78
2023-03-17T08:15:15.607Z,2.10
2023-03-17T08:19:59.796Z,3.57
2023-03-17T08:24:45.126Z,4.32
2023-03-17T08:29:30.105Z,3.00
2023-03-17T08:34:14.266Z,3.30
2023-03-17T08:38:58.802Z,3.37
2023-03-17T08:43:44.963Z,3.15
2023-03-17T08:48:30.352Z,2.25
2023-03-17T08:53:14.390Z,3.30
2023-03-17T08:57:58.494Z,2.60
2023-03-17T09:02:45.049Z,2.33
2023-03-17T09:07:29.253Z,2.30
2023-03-17T09:12:15.985Z,2.35
2023-03-17T09:17:00.818Z,2.70
2023-03-17T09:21:46.646Z,2.35
2023-03-17T09:26:31.630Z,1.53
2023-03-17T09:31:15.892Z,1.67
2023-03-17T09:36:00.223Z,1.75
2023-03-17T09:40:50.286Z,2.00
2023-03-17T09:45:37.798Z,2.00
2023-03-17T09:50:29.605Z,1.63
2023-03-17T09:55:26.277Z,1.60
2023-03-17T10:00:23.153Z,2.10
2023-03-17T10:05:20.604Z,1.80
2023-03-17T10:10:16.154Z,1.75
2023-03-17T10:15:04.046Z,1.97
2023-03-17T10:20:01.882Z,1.73
2023-03-17T10:24:54.366Z,1.80
2023-03-17T10:29:42.236Z,1.60
2023-03-17T10:34:31.057Z,1.58
2023-03-17T10:39:21.536Z,1.60
2023-03-17T10:44:27.765Z,2.13
2023-03-17T10:49:29.090Z,1.83
2023-03-17T10:54:20.686Z,1.45
2023-03-17T10:59:10.957Z,1.48
2023-03-17T11:04:03.345Z,1.87
2023-03-17T11:08:58.771Z,1.50
2023-03-17T11:13:47.350Z,1.50
2023-03-17T11:18:40.805Z,1.60
2023-03-17T11:23:49.771Z,1.80
2023-03-17T11:29:01.571Z,1.85
2023-03-17T11:33:56.773Z,2.00
2023-03-17T11:38:56.489Z,2.92
2023-03-17T11:43:54.338Z,2.58
2023-03-17T11:48:50.676Z,1.35
2023-03-17T11:53:53.813Z,1.30
2023-03-17T11:58:42.961Z,1.40
2023-03-17T12:03:46.096Z,2.35
2023-03-17T12:08:46.566Z,2.23
2023-03-17T12:13:41.093Z,1.80
2023-03-17T12:18:33.826Z,2.10
2023-03-17T12:23:29.919Z,1.77
2023-03-17T12:28:21.043Z,2.42
2023-03-17T12:33:17.049Z,2.33
2023-03-17T12:38:11.490Z,1.95
2023-03-17T12:43:11.256Z,2.47
2023-03-17T12:48:33.798Z,1.83
2023-03-17T12:53:30.809Z,1.73
2023-03-17T12:58:30.925Z,2.10
2023-03-17T13:03:26.803Z,1.75
2023-03-17T13:08:16.793Z,2.65
2023-03-17T13:13:18.285Z,2.37
2023-03-17T13:18:50.610Z,2.10
2023-03-17T13:23:36.812Z,1.90
2023-03-17T13:28:28.646Z,2.60
2023-03-17T13:33:23.739Z,2.20
2023-03-17T13:38:39.807Z,2.17
2023-03-17T13:43:47.322Z,2.28
2023-03-17T13:48:36.906Z,2.13
2023-03-17T13:53:27.711Z,2.15
2023-03-17T13:58:27.509Z,2.70
2023-03-17T14:03:19.325Z,2.70
2023-03-17T14:08:07.435Z,2.55
2023-03-17T14:12:58.095Z,2.60
2023-03-17T14:17:46.602Z,2.83
2023-03-17T14:22:32.502Z,1.90
2023-03-17T14:27:16.752Z,2.20
2023-03-17T14:32:06.110Z,2.40
2023-03-17T14:36:52.238Z,2.90
2023-03-17T14:41:37.738Z,2.03
2023-03-17T14:46:25.065Z,2.35
2023-03-17T14:51:15.866Z,2.80
2023-03-17T14:56:01.119Z,2.97
2023-03-17T15:00:49.808Z,2.00
2023-03-17T15:05:39.924Z,2.63
2023-03-17T15:10:26.430Z,2.10
2023-03-17T15:15:22.546Z,2.60
2023-03-17T15:20:17.070Z,2.55
2023-03-17T15:25:02.766Z,1.73
2023-03-17T15:29:48.261Z,2.13
2023-03-17T15:34:32.494Z,1.50
2023-03-17T15:39:17.989Z,2.27
2023-03-17T15:44:04.007Z,2.45
2023-03-17T15:48:49.292Z,2.65
2023-03-17T15:53:33.403Z,3.20
2023-03-17T15:58:18.870Z,2.60
2023-03-17T16:03:13.533Z,2.92
2023-03-17T16:07:58.122Z,3.00
2023-03-17T16:12:42.151Z,3.50
2023-03-17T16:17:32.171Z,2.28
2023-03-17T16:22:39.705Z,2.00
2023-03-17T16:27:23.859Z,2.47
2023-03-17T16:32:14.020Z,2.45
2023-03-17T16:36:59.528Z,3.30
2023-03-17T16:41:43.973Z,3.47
2023-03-17T16:46:29.016Z,2.80
2023-03-17T16:51:13.189Z,3.17
2023-03-17T16:55:58.717Z,3.10
2023-03-17T17:00:43.345Z,2.37
2023-03-17T17:05:29.576Z,2.65
2023-03-17T17:10:15.777Z,2.45
2023-03-17T17:15:01.366Z,2.63
2023-03-17T17:19:45.626Z,2.90
2023-03-17T17:24:29.806Z,2.97
2023-03-17T17:29:16.935Z,2.38
2023-03-17T17:34:02.488Z,3.70
2023-03-17T17:38:46.945Z,3.60
2023-03-17T17:43:31.335Z,3.95
2023-03-17T17:48:16.521Z,3.40
2023-03-17T17:53:05.511Z,2.55
2023-03-17T17:57:52.291Z,4.53
2023-03-17T18:02:36.720Z,4.47
2023-03-17T18:07:20.874Z,4.05
2023-03-17T18:12:06.870Z,5.00
2023-03-17T18:16:51.242Z,5.15
2023-03-17T18:21:36.499Z,4.53
2023-03-17T18:26:20.586Z,4.32
2023-03-17T18:31:10.577Z,4.50
2023-03-17T18:35:55.652Z,4.80
2023-03-17T18:40:39.923Z,5.00
2023-03-17T18:45:24.310Z,5.82
2023-03-17T18:50:13.106Z,4.87
2023-03-17T18:54:57.245Z,4.78
2023-03-17T18:59:41.338Z,4.72
2023-03-17T19:04:25.837Z,3.75
2023-03-17T19:09:11.824Z,4.07
2023-03-17T19:13:55.984Z,4.82
2023-03-17T19:18:42.193Z,4.45
2023-03-17T19:23:26.722Z,4.43
2023-03-17T19:28:12.557Z,4.72
2023-03-17T19:32:56.794Z,4.40
2023-03-17T19:37:41.060Z,4.43
2023-03-17T19:42:25.329Z,4.35
2023-03-17T19:47:11.211Z,4.53
2023-03-17T19:51:55.256Z,4.20
2023-03-17T19:56:39.669Z,5.60
2023-03-17T20:01:23.888Z,5.90
2023-03-17T20:06:09.566Z,5.03
2023-03-17T20:10:54.115Z,5.03
2023-03-17T20:15:38.357Z,5.60
2023-03-17T20:20:22.519Z,5.65
2023-03-17T20:25:10.371Z,3.50
2023-03-17T20:29:55.723Z,4.57
2023-03-17T20:34:39.735Z,5.07
2023-03-17T20:39:24.076Z,5.63
2023-03-17T20:44:09.812Z,4.10
2023-03-17T20:48:58.705Z,6.03
2023-03-17T20:53:44.667Z,5.88
2023-03-17T20:58:28.949Z,5.97
2023-03-17T21:03:09.926Z,4.00
2023-03-17T21:07:54.167Z,4.50
2023-03-17T21:12:38.423Z,4.33
2023-03-17T21:17:22.882Z,6.43
2023-03-17T21:22:08.288Z,5.43
2023-03-17T21:26:52.413Z,4.70
2023-03-17T21:31:36.859Z,4.67
2023-03-17T21:36:22.065Z,5.82
2023-03-17T21:41:22.398Z,6.20
2023-03-17T21:46:07.073Z,6.20
2023-03-17T21:50:51.196Z,5.05
2023-03-17T21:55:35.763Z,5.28
2023-03-17T22:00:15.804Z,5.33
2023-03-17T22:04:56.865Z,4.28
2023-03-17T22:09:36.098Z,5.97
2023-03-17T22:14:20.014Z,6.78
2023-03-17T22:18:59.126Z,6.60
2023-03-17T22:23:41.337Z,4.97
2023-03-17T22:28:20.415Z,4.65
2023-03-17T22:32:59.432Z,4.03
2023-03-17T22:37:41.264Z,3.92
2023-03-17T22:42:20.051Z,4.10
2023-03-17T22:46:58.436Z,4.93
2023-03-17T22:51:38.187Z,5.28
2023-03-17T22:56:19.276Z,4.88
2023-03-17T23:00:57.420Z,5.57
2023-03-17T23:05:36.419Z,5.80
2023-03-17T23:10:17.735Z,6.47
2023-03-17T23:14:57.390Z,6.00
2023-03-17T23:19:35.049Z,6.77
2023-03-17T23:24:14.801Z,6.18
2023-03-17T23:28:54.173Z,5.00
2023-03-17T23:33:35.081Z,7.30
2023-03-17T23:38:13.534Z,6.82
2023-03-17T23:42:55.163Z,5.50
2023-03-17T23:47:32.945Z,4.40
2023-03-17T23:52:13.760Z,5.70
2023-03-17T23:56:52.691Z,5.78
